sensor_id;sensor_type;location;lat;lon;timestamp;P1;durP1;ratioP1;P2;durP2;ratioP2
23119;SDS011;11729;50.836;4.330;2022-07-01T00:00:35;22.02;;;12.48;;
23119;SDS011;11729;50.836;4.330;2022-07-01T00:03:01;17.65;;;13.30;;
23119;SDS011;11729;50.836;4.330;2022-07-01T00:05:28;19.10;;;12.95;;
23119;SDS011;11729;50.836;4.330;2022-07-01T00:07:53;17.23;;;12.85;;
23119;SDS011;11729;50.836;4.330;2022-07-01T00:10:19;19.85;;;13.63;;
23119;SDS011;11729;50.836;4.330;2022-07-01T00:12:44;20.33;;;13.90;;
23119;SDS011;11729;50.836;4.330;2022-07-01T00:15:11;19.50;;;13.70;;
23119;SDS011;11729;50.836;4.330;2022-07-01T00:17:37;20.02;;;13.52;;
23119;SDS011;11729;50.836;4.330;2022-07-01T00:20:03;23.25;;;14.18;;
23119;SDS011;11729;50.836;4.330;2022-07-01T00:22:29;22.30;;;14.52;;
23119;SDS011;11729;50.836;4.330;2022-07-01T00:24:54;19.63;;;14.00;;
23119;SDS011;11729;50.836;4.330;2022-07-01T00:27:20;22.40;;;14.23;;
23119;SDS011;11729;50.836;4.330;2022-07-01T00:29:47;19.67;;;14.10;;
23119;SDS011;11729;50.836;4.330;2022-07-01T00:32:12;21.70;;;15.48;;
23119;SDS011;11729;50.836;4.330;2022-07-01T00:34:38;24.50;;;14.93;;
23119;SDS011;11729;50.836;4.330;2022-07-01T00:37:04;23.48;;;15.20;;
23119;SDS011;11729;50.836;4.330;2022-07-01T00:39:30;25.58;;;15.68;;
23119;SDS011;11729;50.836;4.330;2022-07-01T00:42:03;22.70;;;14.30;;
23119;SDS011;11729;50.836;4.330;2022-07-01T00:44:29;22.52;;;14.43;;
23119;SDS011;11729;50.836;4.330;2022-07-01T00:46:56;24.08;;;14.65;;
23119;SDS011;11729;50.836;4.330;2022-07-01T00:49:25;19.48;;;15.02;;
23119;SDS011;11729;50.836;4.330;2022-07-01T00:51:51;27.13;;;15.50;;
23119;SDS011;11729;50.836;4.330;2022-07-01T00:54:17;25.55;;;15.30;;
23119;SDS011;11729;50.836;4.330;2022-07-01T00:56:44;25.77;;;15.23;;
23119;SDS011;11729;50.836;4.330;2022-07-01T00:59:10;26.80;;;16.33;;
23119;SDS011;11729;50.836;4.330;2022-07-01T01:01:36;27.58;;;16.50;;
23119;SDS011;11729;50.836;4.330;2022-07-01T01:04:02;25.75;;;16.40;;
23119;SDS011;11729;50.836;4.330;2022-07-01T01:06:28;26.85;;;16.90;;
23119;SDS011;11729;50.836;4.330;2022-07-01T01:08:54;32.92;;;17.25;;
23119;SDS011;11729;50.836;4.330;2022-07-01T01:11:19;34.67;;;17.90;;
23119;SDS011;11729;50.836;4.330;2022-07-01T01:13:45;32.40;;;17.52;;
23119;SDS011;11729;50.836;4.330;2022-07-01T01:16:19;31.92;;;17.02;;
23119;SDS011;11729;50.836;4.330;2022-07-01T01:18:46;36.50;;;18.13;;
23119;SDS011;11729;50.836;4.330;2022-07-01T01:21:11;32.08;;;18.17;;
23119;SDS011;11729;50.836;4.330;2022-07-01T01:23:37;29.95;;;17.10;;
23119;SDS011;11729;50.836;4.330;2022-07-01T01:26:03;29.95;;;18.08;;
23119;SDS011;11729;50.836;4.330;2022-07-01T01:28:28;32.25;;;17.75;;
23119;SDS011;11729;50.836;4.330;2022-07-01T01:30:54;35.72;;;17.63;;
23119;SDS011;11729;50.836;4.330;2022-07-01T01:33:20;30.20;;;17.55;;
23119;SDS011;11729;50.836;4.330;2022-07-01T01:35:46;30.42;;;17.27;;
23119;SDS011;11729;50.836;4.330;2022-07-01T01:38:11;36.00;;;18.15;;
23119;SDS011;11729;50.836;4.330;2022-07-01T01:40:37;35.55;;;19.15;;
23119;SDS011;11729;50.836;4.330;2022-07-01T01:43:03;35.25;;;19.08;;
23119;SDS011;11729;50.836;4.330;2022-07-01T01:45:29;39.40;;;18.63;;
23119;SDS011;11729;50.836;4.330;2022-07-01T01:47:54;38.47;;;19.10;;
23119;SDS011;11729;50.836;4.330;2022-07-01T01:50:20;37.42;;;19.40;;
23119;SDS011;11729;50.836;4.330;2022-07-01T01:52:46;42.28;;;19.67;;
23119;SDS011;11729;50.836;4.330;2022-07-01T01:55:12;36.30;;;18.10;;
23119;SDS011;11729;50.836;4.330;2022-07-01T01:57:38;39.50;;;19.25;;
23119;SDS011;11729;50.836;4.330;2022-07-01T02:00:05;42.00;;;19.40;;
23119;SDS011;11729;50.836;4.330;2022-07-01T02:02:32;40.20;;;18.98;;
23119;SDS011;11729;50.836;4.330;2022-07-01T02:05:01;43.08;;;18.40;;
23119;SDS011;11729;50.836;4.330;2022-07-01T02:07:28;40.38;;;19.25;;
23119;SDS011;11729;50.836;4.330;2022-07-01T02:09:53;35.83;;;19.05;;
23119;SDS011;11729;50.836;4.330;2022-07-01T02:12:19;39.35;;;18.13;;
23119;SDS011;11729;50.836;4.330;2022-07-01T02:14:45;35.08;;;18.42;;
23119;SDS011;11729;50.836;4.330;2022-07-01T02:17:11;33.28;;;17.20;;
23119;SDS011;11729;50.836;4.330;2022-07-01T02:19:37;32.30;;;17.20;;
23119;SDS011;11729;50.836;4.330;2022-07-01T02:22:02;33.40;;;17.35;;
23119;SDS011;11729;50.836;4.330;2022-07-01T02:24:28;35.53;;;17.38;;
23119;SDS011;11729;50.836;4.330;2022-07-01T02:26:54;27.92;;;15.82;;
23119;SDS011;11729;50.836;4.330;2022-07-01T02:29:19;31.15;;;16.77;;
23119;SDS011;11729;50.836;4.330;2022-07-01T02:31:45;29.58;;;17.02;;
23119;SDS011;11729;50.836;4.330;2022-07-01T02:34:10;28.92;;;16.52;;
23119;SDS011;11729;50.836;4.330;2022-07-01T02:36:36;32.35;;;16.35;;
23119;SDS011;11729;50.836;4.330;2022-07-01T02:39:02;37.97;;;15.70;;
23119;SDS011;11729;50.836;4.330;2022-07-01T02:41:27;31.17;;;16.35;;
23119;SDS011;11729;50.836;4.330;2022-07-01T02:43:53;41.25;;;16.63;;
23119;SDS011;11729;50.836;4.330;2022-07-01T02:46:19;25.60;;;16.42;;
23119;SDS011;11729;50.836;4.330;2022-07-01T02:48:44;29.50;;;16.27;;
23119;SDS011;11729;50.836;4.330;2022-07-01T02:51:10;33.63;;;17.15;;
23119;SDS011;11729;50.836;4.330;2022-07-01T02:53:35;31.63;;;16.90;;
23119;SDS011;11729;50.836;4.330;2022-07-01T02:56:01;29.45;;;15.80;;
23119;SDS011;11729;50.836;4.330;2022-07-01T02:58:27;31.67;;;16.80;;
23119;SDS011;11729;50.836;4.330;2022-07-01T03:00:52;28.73;;;15.50;;
23119;SDS011;11729;50.836;4.330;2022-07-01T03:03:18;31.70;;;15.82;;
23119;SDS011;11729;50.836;4.330;2022-07-01T03:05:44;31.13;;;15.15;;
23119;SDS011;11729;50.836;4.330;2022-07-01T03:08:13;22.48;;;15.27;;
23119;SDS011;11729;50.836;4.330;2022-07-01T03:10:38;34.28;;;15.00;;
23119;SDS011;11729;50.836;4.330;2022-07-01T03:13:04;24.15;;;14.77;;
23119;SDS011;11729;50.836;4.330;2022-07-01T03:15:30;27.95;;;14.82;;
23119;SDS011;11729;50.836;4.330;2022-07-01T03:17:56;29.50;;;14.45;;
23119;SDS011;11729;50.836;4.330;2022-07-01T03:20:22;29.83;;;14.95;;
23119;SDS011;11729;50.836;4.330;2022-07-01T03:22:48;20.95;;;13.52;;
23119;SDS011;11729;50.836;4.330;2022-07-01T03:25:15;36.08;;;14.77;;
23119;SDS011;11729;50.836;4.330;2022-07-01T03:27:41;23.45;;;14.88;;
23119;SDS011;11729;50.836;4.330;2022-07-01T03:30:10;23.38;;;14.80;;
23119;SDS011;11729;50.836;4.330;2022-07-01T03:32:36;17.65;;;14.90;;
23119;SDS011;11729;50.836;4.330;2022-07-01T03:35:02;24.40;;;13.73;;
23119;SDS011;11729;50.836;4.330;2022-07-01T03:37:48;20.48;;;13.70;;
23119;SDS011;11729;50.836;4.330;2022-07-01T03:40:15;17.23;;;13.57;;
23119;SDS011;11729;50.836;4.330;2022-07-01T03:42:41;26.80;;;13.50;;
23119;SDS011;11729;50.836;4.330;2022-07-01T03:45:07;27.73;;;14.00;;
23119;SDS011;11729;50.836;4.330;2022-07-01T03:47:33;24.38;;;13.02;;
23119;SDS011;11729;50.836;4.330;2022-07-01T03:49:58;22.92;;;13.43;;
23119;SDS011;11729;50.836;4.330;2022-07-01T03:52:24;18.63;;;12.50;;
23119;SDS011;11729;50.836;4.330;2022-07-01T03:54:49;25.17;;;12.30;;
23119;SDS011;11729;50.836;4.330;2022-07-01T03:57:15;19.02;;;12.50;;
23119;SDS011;11729;50.836;4.330;2022-07-01T03:59:41;21.58;;;12.35;;
23119;SDS011;11729;50.836;4.330;2022-07-01T04:02:06;19.50;;;12.63;;
23119;SDS011;11729;50.836;4.330;2022-07-01T04:04:32;21.70;;;12.50;;
23119;SDS011;11729;50.836;4.330;2022-07-01T04:06:59;22.48;;;13.05;;
23119;SDS011;11729;50.836;4.330;2022-07-01T04:09:28;21.48;;;12.82;;
23119;SDS011;11729;50.836;4.330;2022-07-01T04:11:54;22.00;;;13.05;;
23119;SDS011;11729;50.836;4.330;2022-07-01T04:14:20;22.73;;;13.00;;
23119;SDS011;11729;50.836;4.330;2022-07-01T04:16:46;17.52;;;11.77;;
23119;SDS011;11729;50.836;4.330;2022-07-01T04:19:15;19.80;;;13.07;;
23119;SDS011;11729;50.836;4.330;2022-07-01T04:21:42;20.15;;;12.32;;
23119;SDS011;11729;50.836;4.330;2022-07-01T04:24:26;20.40;;;12.23;;
23119;SDS011;11729;50.836;4.330;2022-07-01T04:26:54;18.33;;;11.85;;
23119;SDS011;11729;50.836;4.330;2022-07-01T04:29:19;18.80;;;12.00;;
23119;SDS011;11729;50.836;4.330;2022-07-01T04:31:46;16.30;;;11.57;;
23119;SDS011;11729;50.836;4.330;2022-07-01T04:34:12;22.83;;;12.15;;
23119;SDS011;11729;50.836;4.330;2022-07-01T04:36:38;22.55;;;11.40;;
23119;SDS011;11729;50.836;4.330;2022-07-01T04:39:04;18.23;;;11.00;;
23119;SDS011;11729;50.836;4.330;2022-07-01T04:41:30;15.65;;;11.57;;
23119;SDS011;11729;50.836;4.330;2022-07-01T04:44:15;15.75;;;11.35;;
23119;SDS011;11729;50.836;4.330;2022-07-01T04:46:41;19.55;;;11.05;;
23119;SDS011;11729;50.836;4.330;2022-07-01T04:49:07;16.88;;;10.70;;
23119;SDS011;11729;50.836;4.330;2022-07-01T04:51:33;20.15;;;11.25;;
23119;SDS011;11729;50.836;4.330;2022-07-01T04:54:00;18.00;;;11.68;;
23119;SDS011;11729;50.836;4.330;2022-07-01T04:56:26;17.95;;;10.75;;
23119;SDS011;11729;50.836;4.330;2022-07-01T04:58:53;17.75;;;10.98;;
23119;SDS011;11729;50.836;4.330;2022-07-01T05:01:19;17.30;;;11.07;;
23119;SDS011;11729;50.836;4.330;2022-07-01T05:03:45;19.75;;;10.82;;
23119;SDS011;11729;50.836;4.330;2022-07-01T05:06:11;16.23;;;11.15;;
23119;SDS011;11729;50.836;4.330;2022-07-01T05:08:37;20.20;;;10.48;;
23119;SDS011;11729;50.836;4.330;2022-07-01T05:11:02;23.13;;;10.77;;
23119;SDS011;11729;50.836;4.330;2022-07-01T05:13:28;19.02;;;9.85;;
23119;SDS011;11729;50.836;4.330;2022-07-01T05:15:53;16.77;;;10.18;;
23119;SDS011;11729;50.836;4.330;2022-07-01T05:18:19;16.45;;;9.98;;
23119;SDS011;11729;50.836;4.330;2022-07-01T05:21:03;14.70;;;9.60;;
23119;SDS011;11729;50.836;4.330;2022-07-01T05:23:47;18.60;;;10.15;;
23119;SDS011;11729;50.836;4.330;2022-07-01T05:26:13;13.98;;;9.35;;
23119;SDS011;11729;50.836;4.330;2022-07-01T05:28:42;16.80;;;9.68;;
23119;SDS011;11729;50.836;4.330;2022-07-01T05:31:09;25.70;;;9.87;;
23119;SDS011;11729;50.836;4.330;2022-07-01T05:33:35;11.13;;;9.38;;
23119;SDS011;11729;50.836;4.330;2022-07-01T05:36:00;13.13;;;9.25;;
23119;SDS011;11729;50.836;4.330;2022-07-01T05:38:27;17.63;;;9.95;;
23119;SDS011;11729;50.836;4.330;2022-07-01T05:40:53;12.30;;;9.30;;
23119;SDS011;11729;50.836;4.330;2022-07-01T05:43:19;15.05;;;8.80;;
23119;SDS011;11729;50.836;4.330;2022-07-01T05:45:45;12.75;;;9.55;;
23119;SDS011;11729;50.836;4.330;2022-07-01T05:48:10;15.15;;;9.02;;
23119;SDS011;11729;50.836;4.330;2022-07-01T05:50:36;15.48;;;8.25;;
23119;SDS011;11729;50.836;4.330;2022-07-01T05:53:02;12.20;;;6.55;;
23119;SDS011;11729;50.836;4.330;2022-07-01T05:55:28;12.40;;;6.65;;
23119;SDS011;11729;50.836;4.330;2022-07-01T05:57:54;11.15;;;6.28;;
23119;SDS011;11729;50.836;4.330;2022-07-01T06:00:20;11.55;;;5.70;;
23119;SDS011;11729;50.836;4.330;2022-07-01T06:02:45;13.35;;;6.20;;
23119;SDS011;11729;50.836;4.330;2022-07-01T06:05:11;12.40;;;5.80;;
23119;SDS011;11729;50.836;4.330;2022-07-01T06:07:38;8.68;;;5.57;;
23119;SDS011;11729;50.836;4.330;2022-07-01T06:10:06;9.82;;;5.72;;
23119;SDS011;11729;50.836;4.330;2022-07-01T06:12:38;11.45;;;5.90;;
23119;SDS011;11729;50.836;4.330;2022-07-01T06:15:08;11.13;;;6.13;;
23119;SDS011;11729;50.836;4.330;2022-07-01T06:17:35;10.43;;;6.05;;
23119;SDS011;11729;50.836;4.330;2022-07-01T06:20:02;10.32;;;5.25;;
23119;SDS011;11729;50.836;4.330;2022-07-01T06:22:28;11.27;;;5.70;;
23119;SDS011;11729;50.836;4.330;2022-07-01T06:24:54;11.50;;;5.90;;
23119;SDS011;11729;50.836;4.330;2022-07-01T06:27:19;13.70;;;5.95;;
23119;SDS011;11729;50.836;4.330;2022-07-01T06:29:45;12.45;;;5.97;;
23119;SDS011;11729;50.836;4.330;2022-07-01T06:32:11;8.18;;;5.28;;
23119;SDS011;11729;50.836;4.330;2022-07-01T06:34:37;12.05;;;5.40;;
23119;SDS011;11729;50.836;4.330;2022-07-01T06:37:03;11.30;;;5.20;;
23119;SDS011;11729;50.836;4.330;2022-07-01T06:39:29;9.40;;;5.22;;
23119;SDS011;11729;50.836;4.330;2022-07-01T06:41:55;12.98;;;5.47;;
23119;SDS011;11729;50.836;4.330;2022-07-01T06:44:21;9.10;;;5.10;;
23119;SDS011;11729;50.836;4.330;2022-07-01T06:46:47;17.98;;;9.25;;
23119;SDS011;11729;50.836;4.330;2022-07-01T06:49:13;18.65;;;6.80;;
23119;SDS011;11729;50.836;4.330;2022-07-01T06:51:39;9.50;;;5.40;;
23119;SDS011;11729;50.836;4.330;2022-07-01T06:54:05;13.27;;;5.43;;
23119;SDS011;11729;50.836;4.330;2022-07-01T06:56:30;11.35;;;5.63;;
23119;SDS011;11729;50.836;4.330;2022-07-01T06:58:56;8.15;;;5.20;;
23119;SDS011;11729;50.836;4.330;2022-07-01T07:01:22;12.23;;;4.97;;
23119;SDS011;11729;50.836;4.330;2022-07-01T07:03:48;17.13;;;5.47;;
23119;SDS011;11729;50.836;4.330;2022-07-01T07:06:14;10.77;;;5.00;;
23119;SDS011;11729;50.836;4.330;2022-07-01T07:08:41;11.10;;;5.57;;
23119;SDS011;11729;50.836;4.330;2022-07-01T07:11:06;8.15;;;4.72;;
23119;SDS011;11729;50.836;4.330;2022-07-01T07:13:34;8.40;;;4.97;;
23119;SDS011;11729;50.836;4.330;2022-07-01T07:16:00;9.32;;;4.75;;
23119;SDS011;11729;50.836;4.330;2022-07-01T07:18:26;8.73;;;4.82;;
23119;SDS011;11729;50.836;4.330;2022-07-01T07:20:51;8.02;;;4.68;;
23119;SDS011;11729;50.836;4.330;2022-07-01T07:23:17;12.00;;;4.50;;
23119;SDS011;11729;50.836;4.330;2022-07-01T07:25:42;8.82;;;4.70;;
23119;SDS011;11729;50.836;4.330;2022-07-01T07:28:08;11.38;;;5.40;;
23119;SDS011;11729;50.836;4.330;2022-07-01T07:30:34;15.60;;;4.97;;
23119;SDS011;11729;50.836;4.330;2022-07-01T07:32:59;9.15;;;4.75;;
23119;SDS011;11729;50.836;4.330;2022-07-01T07:35:25;8.30;;;4.60;;
23119;SDS011;11729;50.836;4.330;2022-07-01T07:37:50;9.75;;;4.50;;
23119;SDS011;11729;50.836;4.330;2022-07-01T07:40:16;10.05;;;4.70;;
23119;SDS011;11729;50.836;4.330;2022-07-01T07:42:45;7.43;;;4.43;;
23119;SDS011;11729;50.836;4.330;2022-07-01T07:45:12;10.45;;;4.45;;
23119;SDS011;11729;50.836;4.330;2022-07-01T07:47:42;10.23;;;4.40;;
23119;SDS011;11729;50.836;4.330;2022-07-01T07:52:34;9.90;;;4.93;;
23119;SDS011;11729;50.836;4.330;2022-07-01T07:55:00;11.57;;;4.75;;
23119;SDS011;11729;50.836;4.330;2022-07-01T07:57:27;6.63;;;4.70;;
23119;SDS011;11729;50.836;4.330;2022-07-01T07:59:52;6.38;;;4.80;;
23119;SDS011;11729;50.836;4.330;2022-07-01T08:02:18;12.27;;;6.25;;
23119;SDS011;11729;50.836;4.330;2022-07-01T08:04:44;10.05;;;4.68;;
23119;SDS011;11729;50.836;4.330;2022-07-01T08:07:09;44.92;;;40.25;;
23119;SDS011;11729;50.836;4.330;2022-07-01T08:09:35;8.93;;;4.93;;
23119;SDS011;11729;50.836;4.330;2022-07-01T08:12:01;8.15;;;4.82;;
23119;SDS011;11729;50.836;4.330;2022-07-01T08:14:27;11.52;;;5.00;;
23119;SDS011;11729;50.836;4.330;2022-07-01T08:16:53;8.82;;;4.78;;
23119;SDS011;11729;50.836;4.330;2022-07-01T08:19:19;12.00;;;4.80;;
23119;SDS011;11729;50.836;4.330;2022-07-01T08:21:44;9.38;;;5.15;;
23119;SDS011;11729;50.836;4.330;2022-07-01T08:24:10;14.73;;;5.57;;
23119;SDS011;11729;50.836;4.330;2022-07-01T08:26:36;6.90;;;4.70;;
23119;SDS011;11729;50.836;4.330;2022-07-01T08:29:01;10.50;;;4.70;;
23119;SDS011;11729;50.836;4.330;2022-07-01T08:31:27;12.65;;;4.72;;
23119;SDS011;11729;50.836;4.330;2022-07-01T08:33:53;11.30;;;4.40;;
23119;SDS011;11729;50.836;4.330;2022-07-01T08:36:18;9.38;;;4.68;;
23119;SDS011;11729;50.836;4.330;2022-07-01T08:38:44;5.97;;;4.03;;
23119;SDS011;11729;50.836;4.330;2022-07-01T08:43:38;8.38;;;4.28;;
23119;SDS011;11729;50.836;4.330;2022-07-01T08:46:03;9.77;;;4.60;;
23119;SDS011;11729;50.836;4.330;2022-07-01T08:48:29;9.05;;;4.35;;
23119;SDS011;11729;50.836;4.330;2022-07-01T08:50:55;97.30;;;87.07;;
23119;SDS011;11729;50.836;4.330;2022-07-01T08:53:21;7.43;;;4.90;;
23119;SDS011;11729;50.836;4.330;2022-07-01T08:55:47;8.70;;;4.82;;
23119;SDS011;11729;50.836;4.330;2022-07-01T08:58:31;7.78;;;4.45;;
23119;SDS011;11729;50.836;4.330;2022-07-01T09:01:16;9.45;;;4.20;;
23119;SDS011;11729;50.836;4.330;2022-07-01T09:03:46;6.28;;;4.40;;
23119;SDS011;11729;50.836;4.330;2022-07-01T09:06:14;10.68;;;4.70;;
23119;SDS011;11729;50.836;4.330;2022-07-01T09:08:45;9.13;;;4.78;;
23119;SDS011;11729;50.836;4.330;2022-07-01T09:11:18;8.38;;;5.00;;
23119;SDS011;11729;50.836;4.330;2022-07-01T09:14:06;8.85;;;4.60;;
23119;SDS011;11729;50.836;4.330;2022-07-01T09:16:47;8.25;;;4.97;;
23119;SDS011;11729;50.836;4.330;2022-07-01T09:19:15;10.27;;;4.68;;
23119;SDS011;11729;50.836;4.330;2022-07-01T09:21:47;7.63;;;4.90;;
23119;SDS011;11729;50.836;4.330;2022-07-01T09:24:22;11.20;;;4.85;;
23119;SDS011;11729;50.836;4.330;2022-07-01T09:26:51;7.70;;;4.78;;
23119;SDS011;11729;50.836;4.330;2022-07-01T09:29:25;6.25;;;4.40;;
23119;SDS011;11729;50.836;4.330;2022-07-01T09:32:02;8.07;;;4.63;;
23119;SDS011;11729;50.836;4.330;2022-07-01T09:34:39;7.38;;;4.80;;
23119;SDS011;11729;50.836;4.330;2022-07-01T09:37:13;8.70;;;4.70;;
23119;SDS011;11729;50.836;4.330;2022-07-01T09:42:12;10.40;;;5.13;;
23119;SDS011;11729;50.836;4.330;2022-07-01T09:44:52;7.65;;;4.47;;
23119;SDS011;11729;50.836;4.330;2022-07-01T09:47:25;7.55;;;4.38;;
23119;SDS011;11729;50.836;4.330;2022-07-01T09:49:52;8.13;;;4.40;;
23119;SDS011;11729;50.836;4.330;2022-07-01T09:52:18;7.38;;;4.55;;
23119;SDS011;11729;50.836;4.330;2022-07-01T09:54:45;9.35;;;5.35;;
23119;SDS011;11729;50.836;4.330;2022-07-01T09:57:14;8.80;;;5.05;;
23119;SDS011;11729;50.836;4.330;2022-07-01T09:59:40;6.00;;;5.00;;
23119;SDS011;11729;50.836;4.330;2022-07-01T10:02:09;6.57;;;4.80;;
23119;SDS011;11729;50.836;4.330;2022-07-01T10:04:36;6.25;;;4.75;;
23119;SDS011;11729;50.836;4.330;2022-07-01T10:14:49;7.40;;;4.50;;
23119;SDS011;11729;50.836;4.330;2022-07-01T10:17:58;10.60;;;4.45;;
23119;SDS011;11729;50.836;4.330;2022-07-01T10:20:09;6.40;;;4.00;;
23119;SDS011;11729;50.836;4.330;2022-07-01T10:22:37;6.32;;;4.07;;
23119;SDS011;11729;50.836;4.330;2022-07-01T10:31:15;8.70;;;4.50;;
23119;SDS011;11729;50.836;4.330;2022-07-01T10:41:25;7.78;;;4.40;;
23119;SDS011;11729;50.836;4.330;2022-07-01T10:43:55;6.63;;;4.55;;
23119;SDS011;11729;50.836;4.330;2022-07-01T10:49:18;6.43;;;4.68;;
23119;SDS011;11729;50.836;4.330;2022-07-01T10:57:17;5.78;;;4.82;;
23119;SDS011;11729;50.836;4.330;2022-07-01T10:59:44;7.07;;;4.30;;
23119;SDS011;11729;50.836;4.330;2022-07-01T11:02:18;7.15;;;4.25;;
23119;SDS011;11729;50.836;4.330;2022-07-01T11:04:46;5.53;;;4.50;;
23119;SDS011;11729;50.836;4.330;2022-07-01T11:07:12;9.00;;;4.22;;
23119;SDS011;11729;50.836;4.330;2022-07-01T11:09:37;7.57;;;4.65;;
23119;SDS011;11729;50.836;4.330;2022-07-01T11:12:04;6.10;;;4.70;;
23119;SDS011;11729;50.836;4.330;2022-07-01T11:14:37;5.53;;;4.20;;
23119;SDS011;11729;50.836;4.330;2022-07-01T11:17:05;9.20;;;4.57;;
23119;SDS011;11729;50.836;4.330;2022-07-01T11:19:31;7.60;;;5.03;;
23119;SDS011;11729;50.836;4.330;2022-07-01T11:21:57;6.28;;;4.53;;
23119;SDS011;11729;50.836;4.330;2022-07-01T11:24:23;8.07;;;4.60;;
23119;SDS011;11729;50.836;4.330;2022-07-01T11:26:49;5.28;;;4.35;;
23119;SDS011;11729;50.836;4.330;2022-07-01T11:29:27;8.93;;;4.30;;
23119;SDS011;11729;50.836;4.330;2022-07-01T11:31:53;5.47;;;4.07;;
23119;SDS011;11729;50.836;4.330;2022-07-01T11:34:20;9.43;;;4.38;;
23119;SDS011;11729;50.836;4.330;2022-07-01T11:36:47;4.78;;;3.95;;
23119;SDS011;11729;50.836;4.330;2022-07-01T11:39:32;4.88;;;4.38;;
23119;SDS011;11729;50.836;4.330;2022-07-01T11:44:31;8.68;;;4.10;;
23119;SDS011;11729;50.836;4.330;2022-07-01T11:47:02;10.98;;;4.03;;
23119;SDS011;11729;50.836;4.330;2022-07-01T11:49:43;5.32;;;3.95;;
23119;SDS011;11729;50.836;4.330;2022-07-01T11:52:11;4.22;;;3.80;;
23119;SDS011;11729;50.836;4.330;2022-07-01T11:54:40;5.45;;;3.80;;
23119;SDS011;11729;50.836;4.330;2022-07-01T11:57:17;6.82;;;4.18;;
23119;SDS011;11729;50.836;4.330;2022-07-01T11:59:47;9.07;;;4.35;;
23119;SDS011;11729;50.836;4.330;2022-07-01T12:04:41;9.15;;;4.10;;
23119;SDS011;11729;50.836;4.330;2022-07-01T12:07:08;8.75;;;5.00;;
23119;SDS011;11729;50.836;4.330;2022-07-01T12:09:35;6.82;;;4.28;;
23119;SDS011;11729;50.836;4.330;2022-07-01T12:12:02;6.25;;;4.32;;
23119;SDS011;11729;50.836;4.330;2022-07-01T12:14:35;6.35;;;3.88;;
23119;SDS011;11729;50.836;4.330;2022-07-01T12:17:02;6.82;;;3.80;;
23119;SDS011;11729;50.836;4.330;2022-07-01T12:22:13;4.70;;;4.13;;
23119;SDS011;11729;50.836;4.330;2022-07-01T12:24:40;6.22;;;3.90;;
23119;SDS011;11729;50.836;4.330;2022-07-01T12:27:07;7.43;;;3.92;;
23119;SDS011;11729;50.836;4.330;2022-07-01T12:32:14;4.82;;;3.80;;
23119;SDS011;11729;50.836;4.330;2022-07-01T12:35:06;10.25;;;3.90;;
23119;SDS011;11729;50.836;4.330;2022-07-01T12:37:51;4.03;;;3.70;;
23119;SDS011;11729;50.836;4.330;2022-07-01T12:40:24;8.75;;;3.72;;
23119;SDS011;11729;50.836;4.330;2022-07-01T12:42:53;5.72;;;4.00;;
23119;SDS011;11729;50.836;4.330;2022-07-01T12:45:23;3.85;;;3.55;;
23119;SDS011;11729;50.836;4.330;2022-07-01T12:47:50;3.88;;;3.58;;
23119;SDS011;11729;50.836;4.330;2022-07-01T12:50:21;4.10;;;3.70;;
23119;SDS011;11729;50.836;4.330;2022-07-01T12:53:00;7.88;;;4.68;;
23119;SDS011;11729;50.836;4.330;2022-07-01T12:55:35;6.70;;;5.15;;
23119;SDS011;11729;50.836;4.330;2022-07-01T12:58:02;6.55;;;4.38;;
23119;SDS011;11729;50.836;4.330;2022-07-01T13:00:29;4.38;;;3.97;;
23119;SDS011;11729;50.836;4.330;2022-07-01T13:02:57;6.50;;;3.90;;
23119;SDS011;11729;50.836;4.330;2022-07-01T13:05:24;4.72;;;3.88;;
23119;SDS011;11729;50.836;4.330;2022-07-01T13:07:50;4.55;;;3.90;;
23119;SDS011;11729;50.836;4.330;2022-07-01T13:10:16;7.72;;;4.10;;
23119;SDS011;11729;50.836;4.330;2022-07-01T13:12:43;6.82;;;3.78;;
23119;SDS011;11729;50.836;4.330;2022-07-01T13:15:10;5.75;;;3.80;;
23119;SDS011;11729;50.836;4.330;2022-07-01T13:17:36;6.60;;;3.72;;
23119;SDS011;11729;50.836;4.330;2022-07-01T13:20:02;6.35;;;4.10;;
23119;SDS011;11729;50.836;4.330;2022-07-01T13:22:28;4.55;;;3.70;;
23119;SDS011;11729;50.836;4.330;2022-07-01T13:24:54;4.25;;;3.78;;
23119;SDS011;11729;50.836;4.330;2022-07-01T13:27:19;7.20;;;4.13;;
23119;SDS011;11729;50.836;4.330;2022-07-01T13:29:47;4.65;;;3.88;;
23119;SDS011;11729;50.836;4.330;2022-07-01T13:32:13;4.32;;;3.70;;
23119;SDS011;11729;50.836;4.330;2022-07-01T13:34:39;7.20;;;3.65;;
23119;SDS011;11729;50.836;4.330;2022-07-01T13:37:06;10.05;;;3.90;;
23119;SDS011;11729;50.836;4.330;2022-07-01T13:39:32;5.20;;;3.75;;
23119;SDS011;11729;50.836;4.330;2022-07-01T13:41:57;5.32;;;4.05;;
23119;SDS011;11729;50.836;4.330;2022-07-01T13:44:23;13.55;;;8.77;;
23119;SDS011;11729;50.836;4.330;2022-07-01T13:46:49;6.03;;;3.88;;
23119;SDS011;11729;50.836;4.330;2022-07-01T13:49:14;4.95;;;4.00;;
23119;SDS011;11729;50.836;4.330;2022-07-01T13:51:40;7.07;;;4.10;;
23119;SDS011;11729;50.836;4.330;2022-07-01T13:54:07;6.68;;;4.15;;
23119;SDS011;11729;50.836;4.330;2022-07-01T13:56:33;4.45;;;4.05;;
23119;SDS011;11729;50.836;4.330;2022-07-01T13:58:59;5.22;;;3.92;;
23119;SDS011;11729;50.836;4.330;2022-07-01T14:01:24;4.38;;;3.97;;
23119;SDS011;11729;50.836;4.330;2022-07-01T14:03:50;8.18;;;4.00;;
23119;SDS011;11729;50.836;4.330;2022-07-01T14:06:17;4.45;;;3.90;;
23119;SDS011;11729;50.836;4.330;2022-07-01T14:08:43;4.68;;;3.97;;
23119;SDS011;11729;50.836;4.330;2022-07-01T14:11:09;5.05;;;4.43;;
23119;SDS011;11729;50.836;4.330;2022-07-01T14:13:34;5.68;;;4.30;;
23119;SDS011;11729;50.836;4.330;2022-07-01T14:16:01;5.18;;;4.13;;
23119;SDS011;11729;50.836;4.330;2022-07-01T14:18:26;6.30;;;4.05;;
23119;SDS011;11729;50.836;4.330;2022-07-01T14:20:52;10.90;;;4.63;;
23119;SDS011;11729;50.836;4.330;2022-07-01T14:23:18;4.78;;;4.05;;
23119;SDS011;11729;50.836;4.330;2022-07-01T14:25:44;7.50;;;4.75;;
23119;SDS011;11729;50.836;4.330;2022-07-01T14:28:11;7.10;;;4.50;;
23119;SDS011;11729;50.836;4.330;2022-07-01T14:30:37;6.00;;;4.20;;
23119;SDS011;11729;50.836;4.330;2022-07-01T14:33:03;4.35;;;3.95;;
23119;SDS011;11729;50.836;4.330;2022-07-01T14:35:29;5.90;;;4.22;;
23119;SDS011;11729;50.836;4.330;2022-07-01T14:37:54;6.13;;;4.05;;
23119;SDS011;11729;50.836;4.330;2022-07-01T14:40:20;8.57;;;4.50;;
23119;SDS011;11729;50.836;4.330;2022-07-01T14:42:46;6.60;;;4.65;;
23119;SDS011;11729;50.836;4.330;2022-07-01T14:45:12;9.40;;;4.57;;
23119;SDS011;11729;50.836;4.330;2022-07-01T14:47:42;6.68;;;4.93;;
23119;SDS011;11729;50.836;4.330;2022-07-01T14:50:09;8.73;;;5.00;;
23119;SDS011;11729;50.836;4.330;2022-07-01T14:52:35;5.60;;;4.32;;
23119;SDS011;11729;50.836;4.330;2022-07-01T14:55:03;9.35;;;5.07;;
23119;SDS011;11729;50.836;4.330;2022-07-01T14:57:29;5.03;;;4.25;;
23119;SDS011;11729;50.836;4.330;2022-07-01T14:59:55;6.05;;;4.20;;
23119;SDS011;11729;50.836;4.330;2022-07-01T15:02:21;5.32;;;4.32;;
23119;SDS011;11729;50.836;4.330;2022-07-01T15:04:47;5.07;;;4.22;;
23119;SDS011;11729;50.836;4.330;2022-07-01T15:07:13;7.65;;;4.82;;
23119;SDS011;11729;50.836;4.330;2022-07-01T15:09:39;6.70;;;4.78;;
23119;SDS011;11729;50.836;4.330;2022-07-01T15:12:05;4.75;;;4.35;;
23119;SDS011;11729;50.836;4.330;2022-07-01T15:14:31;6.82;;;4.40;;
23119;SDS011;11729;50.836;4.330;2022-07-01T15:16:57;5.20;;;4.55;;
23119;SDS011;11729;50.836;4.330;2022-07-01T15:19:23;7.93;;;5.07;;
23119;SDS011;11729;50.836;4.330;2022-07-01T15:24:17;5.40;;;4.90;;
23119;SDS011;11729;50.836;4.330;2022-07-01T15:26:43;4.60;;;4.20;;